Time;durP1;ratioP1;P1;durP2;ratioP2;P2;SDS_P1;SDS_P2;PMS_P1;PMS_P2;Temp;Humidity;BMP_temperature;BMP_pressure;BME280_temperature;BME280_humidity;BME280_pressure;Samples;Min_cycle;Max_cycle;Signal;HPM_P1;HPM_P2
2022/01/25 00:09:18;;;;;;;14.20;8.90;;;-1.40;99.90;;;;;;5007654;28;20480;-86
2022/01/25 00:28:25;;;;;;;10.85;6.68;;;-1.20;99.90;;;;;;5001945;28;20486;-86
2022/01/25 00:33:32;;;;;;;10.57;6.10;;;-1.20;99.90;;;;;;4991122;28;20393;-86
2022/01/25 00:36:02;;;;;;;10.18;6.72;;;-1.10;99.90;;;;;;4992345;28;20692;-86
2022/01/25 00:38:30;;;;;;;9.55;6.30;;;-1.20;99.90;;;;;;4991018;28;20891;-86
2022/01/25 00:40:58;;;;;;;9.48;6.55;;;-1.20;99.90;;;;;;4974890;28;20497;-86
2022/01/25 00:43:27;;;;;;;9.10;6.43;;;-1.10;99.90;;;;;;5007542;28;20736;-86
2022/01/25 00:45:58;;;;;;;9.87;6.57;;;-1.20;99.90;;;;;;4990845;28;20411;-85
2022/01/25 00:48:40;;;;;;;9.40;6.03;;;-1.10;99.90;;;;;;5013937;28;20389;-86
2022/01/25 00:51:24;;;;;;;9.55;6.53;;;-1.00;99.90;;;;;;5006699;28;20389;-85
2022/01/25 00:53:57;;;;;;;11.38;7.88;;;-1.00;99.90;;;;;;5023248;28;20516;-85
2022/01/25 00:56:32;;;;;;;11.82;7.85;;;-1.00;99.90;;;;;;5006849;28;20397;-86
2022/01/25 00:59:02;;;;;;;9.95;6.95;;;-1.00;99.90;;;;;;5022431;28;20397;-87
2022/01/25 01:01:30;;;;;;;12.07;6.60;;;-1.00;99.90;;;;;;5006954;28;20948;-85
2022/01/25 01:03:59;;;;;;;11.35;7.07;;;-1.00;99.90;;;;;;5006663;28;20952;-87
2022/01/25 01:06:27;;;;;;;9.98;6.55;;;-1.00;99.90;;;;;;5006929;28;20398;-86
2022/01/25 01:08:55;;;;;;;13.30;7.07;;;-1.00;99.90;;;;;;5006341;28;20401;-87
2022/01/25 01:11:35;;;;;;;10.73;6.93;;;-0.90;99.90;;;;;;4991631;28;20871;-86
2022/01/25 01:44:00;;;;;;;8.63;4.13;;;-0.70;99.90;;;;;;5042409;28;20403;-87
2022/01/25 01:48:59;;;;;;;9.05;4.85;;;-0.60;99.90;;;;;;5010581;28;20384;-86
2022/01/25 01:51:33;;;;;;;9.30;4.97;;;-0.60;99.90;;;;;;5009624;28;20387;-87
2022/01/25 01:54:13;;;;;;;6.72;4.07;;;-0.60;99.90;;;;;;5009537;28;20399;-86
2022/01/25 01:56:43;;;;;;;6.18;4.00;;;-0.60;99.90;;;;;;4993183;28;20387;-87
2022/01/25 01:59:16;;;;;;;6.60;4.00;;;-0.60;99.90;;;;;;4993008;28;20425;-86
2022/01/25 02:01:46;;;;;;;6.82;3.90;;;-0.60;99.90;;;;;;4992956;28;20403;-87
2022/01/25 02:04:16;;;;;;;6.40;3.80;;;-0.60;99.90;;;;;;4993016;28;20403;-85
2022/01/25 02:06:44;;;;;;;6.43;3.70;;;-0.60;99.90;;;;;;5005414;28;20392;-85
2022/01/25 02:09:12;;;;;;;8.20;4.65;;;-0.50;99.90;;;;;;4989455;28;20389;-86
2022/01/25 02:11:40;;;;;;;5.50;3.73;;;-0.50;99.90;;;;;;4989459;28;20405;-86
2022/01/25 02:14:12;;;;;;;5.75;3.60;;;-0.50;99.90;;;;;;4973224;28;20463;-85
2022/01/25 02:16:58;;;;;;;5.80;3.50;;;-0.50;99.90;;;;;;4990329;28;20458;-85
2022/01/25 02:24:50;;;;;;;7.32;4.05;;;-0.50;99.90;;;;;;5021750;28;20902;-86
2022/01/25 02:27:18;;;;;;;4.75;2.85;;;-0.50;99.90;;;;;;5005259;28;20401;-86
2022/01/25 02:29:46;;;;;;;4.63;2.90;;;-0.50;99.90;;;;;;4998952;28;20468;-87
2022/01/25 02:32:14;;;;;;;6.20;3.25;;;-0.50;99.90;;;;;;4989282;28;20392;-86
2022/01/25 02:34:43;;;;;;;6.63;3.78;;;-0.50;99.90;;;;;;5021585;28;20400;-85
2022/01/25 02:37:16;;;;;;;9.53;3.83;;;-0.50;99.90;;;;;;5021671;28;20431;-86
2022/01/25 02:39:45;;;;;;;6.90;4.05;;;-0.40;99.90;;;;;;5005351;28;20431;-85
2022/01/25 02:42:16;;;;;;;10.57;4.10;;;-0.40;99.90;;;;;;4988910;28;20918;-87
2022/01/25 02:44:44;;;;;;;8.95;4.13;;;-0.40;99.90;;;;;;5021294;28;20890;-86
2022/01/25 02:49:59;;;;;;;11.38;4.72;;;-0.40;99.90;;;;;;5021532;28;20433;-87
2022/01/25 02:52:27;;;;;;;38.35;5.45;;;-0.50;99.90;;;;;;4989002;28;20772;-86
2022/01/25 02:54:54;;;;;;;14.15;5.82;;;-0.40;99.90;;;;;;5005132;28;20515;-86
2022/01/25 02:57:23;;;;;;;12.15;5.05;;;-0.40;99.90;;;;;;5034996;28;20536;-86
2022/01/25 02:59:51;;;;;;;28.93;5.47;;;-0.40;99.90;;;;;;5008137;28;20448;-85
2022/01/25 03:02:19;;;;;;;38.75;5.55;;;-0.40;99.90;;;;;;5008217;28;21050;-85
2022/01/25 03:04:46;;;;;;;18.38;5.50;;;-0.30;99.90;;;;;;5009376;28;20391;-87
2022/01/25 03:07:14;;;;;;;43.78;5.50;;;-0.30;99.90;;;;;;4991815;28;20403;-85
2022/01/25 03:09:44;;;;;;;36.70;6.20;;;-0.30;99.90;;;;;;5008332;28;20402;-86
2022/01/25 03:12:17;;;;;;;13.88;4.40;;;-0.40;99.90;;;;;;4992056;28;20435;-86
2022/01/25 03:15:10;;;;;;;20.30;4.40;;;-0.30;99.90;;;;;;5008153;28;20399;-87
2022/01/25 03:17:44;;;;;;;11.05;3.80;;;-0.30;99.90;;;;;;5009440;28;20405;-86
2022/01/25 03:20:19;;;;;;;12.15;4.25;;;-0.30;99.90;;;;;;5008022;28;20482;-86
2022/01/25 03:25:22;;;;;;;7.38;3.83;;;-0.30;99.90;;;;;;5040945;28;20391;-86
2022/01/25 03:27:50;;;;;;;5.97;3.67;;;-0.30;99.90;;;;;;5008281;28;20463;-85
2022/01/25 03:30:18;;;;;;;7.05;3.90;;;-0.30;99.90;;;;;;5007952;28;20484;-86
2022/01/25 03:32:45;;;;;;;6.47;3.15;;;-0.20;99.90;;;;;;5007933;28;20391;-86
2022/01/25 03:35:13;;;;;;;5.05;3.10;;;-0.20;99.90;;;;;;5009093;28;20878;-86
2022/01/25 03:37:41;;;;;;;6.05;3.70;;;-0.30;99.90;;;;;;5007790;28;20866;-86
2022/01/25 03:40:10;;;;;;;5.70;3.23;;;-0.20;99.90;;;;;;5040323;28;20870;-87
2022/01/25 03:42:39;;;;;;;4.93;2.90;;;-0.30;99.90;;;;;;5024278;28;20407;-86
2022/01/25 03:45:09;;;;;;;4.00;2.33;;;-0.30;99.90;;;;;;5007772;28;20391;-86
2022/01/25 03:47:56;;;;;;;3.63;2.38;;;-0.20;99.90;;;;;;5007142;28;20409;-86
2022/01/25 03:50:25;;;;;;;3.90;2.30;;;-0.20;99.90;;;;;;4993683;28;20396;-86
2022/01/25 03:52:53;;;;;;;4.00;2.38;;;-0.20;99.90;;;;;;4988105;28;20398;-87
2022/01/25 03:55:21;;;;;;;4.33;2.47;;;-0.20;99.90;;;;;;4988125;28;20396;-87
2022/01/25 03:57:49;;;;;;;4.13;2.50;;;-0.20;99.90;;;;;;4988458;28;20425;-87
2022/01/25 04:00:17;;;;;;;2.80;2.08;;;-0.20;99.90;;;;;;4990196;28;20872;-87
2022/01/25 04:02:52;;;;;;;3.13;1.90;;;-0.20;99.90;;;;;;4991401;28;20399;-86
2022/01/25 04:05:24;;;;;;;2.93;2.10;;;-0.20;99.90;;;;;;5007682;28;20394;-86
2022/01/25 04:07:52;;;;;;;2.83;1.73;;;-0.20;99.90;;;;;;5007372;28;20399;-86
2022/01/25 04:10:26;;;;;;;3.03;1.80;;;-0.20;99.90;;;;;;5007647;28;20421;-86
2022/01/25 04:12:54;;;;;;;3.10;1.90;;;-0.20;99.90;;;;;;4991586;28;20414;-86
2022/01/25 04:15:21;;;;;;;2.55;1.73;;;-0.20;99.90;;;;;;5007428;28;20455;-86
2022/01/25 04:17:58;;;;;;;3.63;2.00;;;-0.10;99.90;;;;;;5020671;28;20409;-86
2022/01/25 04:20:31;;;;;;;2.53;1.90;;;-0.20;99.90;;;;;;4989136;28;20399;-87
2022/01/25 04:25:45;;;;;;;2.78;2.03;;;-0.20;99.90;;;;;;4987805;28;20409;-87
2022/01/25 04:28:13;;;;;;;2.72;1.88;;;-0.20;99.90;;;;;;4987970;28;20393;-86
2022/01/25 04:30:40;;;;;;;2.70;1.90;;;-0.10;99.90;;;;;;4988221;28;20389;-87
2022/01/25 04:33:20;;;;;;;2.47;1.55;;;-0.20;99.90;;;;;;4988255;28;20393;-87
2022/01/25 04:49:43;;;;;;;2.40;1.83;;;-0.10;99.90;;;;;;4991003;28;20401;-87
2022/01/25 04:52:13;;;;;;;2.20;1.40;;;-0.10;99.90;;;;;;5023314;28;20401;-86
2022/01/25 04:54:53;;;;;;;2.55;1.50;;;-0.10;99.90;;;;;;4999226;28;20411;-86
2022/01/25 05:00:05;;;;;;;2.20;1.48;;;-0.10;99.90;;;;;;5011671;28;20861;-86
2022/01/25 05:02:55;;;;;;;2.27;1.50;;;-0.10;99.90;;;;;;5023098;27;20776;-86
2022/01/25 05:05:55;;;;;;;2.10;1.30;;;-0.10;99.90;;;;;;5024316;28;20399;-85
2022/01/25 05:08:30;;;;;;;3.15;1.58;;;-0.10;99.90;;;;;;5005729;28;20404;-85
2022/01/25 05:16:36;;;;;;;1.55;1.17;;;-0.10;99.90;;;;;;5010018;28;20403;-86
2022/01/25 05:22:19;;;;;;;2.65;1.60;;;-0.10;99.90;;;;;;4991740;28;20426;-87
2022/01/25 05:24:49;;;;;;;1.63;1.20;;;-0.10;99.90;;;;;;4990381;28;20401;-86
2022/01/25 05:27:18;;;;;;;1.17;1.00;;;-0.10;99.90;;;;;;4991460;28;20398;-85
2022/01/25 05:29:46;;;;;;;1.60;1.20;;;-0.10;99.90;;;;;;5023326;28;20417;-86
2022/01/25 05:32:14;;;;;;;1.63;1.08;;;-0.10;99.90;;;;;;5006229;28;20404;-86
2022/01/25 05:34:42;;;;;;;2.50;1.38;;;0.00;99.90;;;;;;5031522;28;20770;-85
2022/01/25 05:37:10;;;;;;;1.23;0.90;;;0.00;99.90;;;;;;5042474;28;20387;-84
2022/01/25 05:39:38;;;;;;;1.02;0.80;;;0.00;99.90;;;;;;5025878;28;20405;-85
2022/01/25 05:42:24;;;;;;;1.13;0.70;;;0.00;99.90;;;;;;5025779;28;20404;-85
2022/01/25 05:47:25;;;;;;;1.30;0.90;;;-0.10;99.90;;;;;;5010765;28;20387;-86
2022/01/25 05:49:53;;;;;;;0.90;0.80;;;0.00;99.90;;;;;;5042382;28;20512;-86
2022/01/25 05:52:21;;;;;;;1.20;0.80;;;0.00;99.90;;;;;;5008094;28;20399;-85
2022/01/25 05:54:49;;;;;;;2.38;1.50;;;0.00;99.90;;;;;;5041955;28;20395;-84
2022/01/25 05:57:17;;;;;;;1.08;0.88;;;0.00;99.90;;;;;;4983109;28;20401;-85
2022/01/25 05:59:45;;;;;;;3.08;1.77;;;0.00;99.90;;;;;;4990710;28;20428;-87
2022/01/25 06:02:17;;;;;;;3.80;1.73;;;0.00;99.90;;;;;;5009092;28;20410;-85
2022/01/25 06:04:46;;;;;;;0.90;0.68;;;0.00;99.90;;;;;;5009113;28;20388;-86
2022/01/25 06:07:14;;;;;;;1.25;0.80;;;0.00;99.90;;;;;;5009666;28;20404;-86
2022/01/25 06:09:42;;;;;;;1.10;0.80;;;0.00;99.90;;;;;;5009364;28;20479;-87
2022/01/25 06:12:10;;;;;;;1.40;0.80;;;0.00;99.90;;;;;;5009066;28;20397;-87
2022/01/25 06:14:38;;;;;;;1.00;0.70;;;0.00;99.90;;;;;;5010231;28;20474;-86
2022/01/25 06:17:06;;;;;;;0.80;0.68;;;0.00;99.90;;;;;;5009959;28;20387;-86
2022/01/25 06:19:34;;;;;;;1.15;0.90;;;0.00;99.90;;;;;;5025224;28;20392;-86
2022/01/25 06:22:01;;;;;;;1.73;1.00;;;0.00;99.90;;;;;;5025432;28;20388;-87
2022/01/25 06:24:30;;;;;;;1.23;0.80;;;0.00;99.90;;;;;;5025912;28;20391;-87
2022/01/25 06:26:58;;;;;;;1.13;0.68;;;0.00;99.90;;;;;;5008840;28;20403;-86
2022/01/25 06:29:26;;;;;;;1.00;0.70;;;0.00;99.90;;;;;;5009191;28;20793;-86
2022/01/25 06:31:54;;;;;;;1.00;0.70;;;0.10;99.90;;;;;;4992576;28;20463;-87
2022/01/25 06:34:22;;;;;;;0.85;0.60;;;0.10;99.90;;;;;;5041730;27;20402;-87
2022/01/25 06:36:50;;;;;;;1.38;0.90;;;0.00;99.90;;;;;;4992460;28;20403;-86
2022/01/25 06:39:17;;;;;;;1.00;0.70;;;0.10;99.90;;;;;;4992337;28;20394;-86
2022/01/25 06:41:46;;;;;;;0.60;0.57;;;0.10;99.90;;;;;;5008924;28;20861;-86
2022/01/25 06:44:14;;;;;;;0.90;0.68;;;0.10;99.90;;;;;;5009813;28;20411;-86
2022/01/25 06:46:42;;;;;;;1.50;0.73;;;0.10;99.90;;;;;;5008442;28;20395;-87
2022/01/25 06:49:09;;;;;;;1.47;0.70;;;0.10;99.90;;;;;;5008684;28;20892;-87
2022/01/25 06:51:37;;;;;;;0.70;0.52;;;0.10;99.90;;;;;;4992552;28;20392;-87
2022/01/25 06:54:06;;;;;;;1.00;0.63;;;0.10;99.90;;;;;;5008468;28;20448;-86
2022/01/25 06:56:34;;;;;;;0.75;0.50;;;0.10;99.90;;;;;;4991093;28;20403;-87
2022/01/25 06:59:02;;;;;;;0.50;0.40;;;0.10;99.90;;;;;;5008443;28;20425;-86
2022/01/25 07:01:31;;;;;;;0.60;0.50;;;0.10;99.90;;;;;;4992199;28;20411;-86
2022/01/25 07:03:59;;;;;;;0.82;0.60;;;0.10;99.90;;;;;;5008168;28;20451;-86
2022/01/25 07:06:26;;;;;;;1.40;0.65;;;0.10;99.90;;;;;;4992099;28;20398;-87
2022/01/25 07:08:54;;;;;;;0.57;0.50;;;0.10;99.90;;;;;;5007968;28;20427;-86
2022/01/25 07:11:23;;;;;;;1.13;0.70;;;0.10;99.90;;;;;;4992140;28;20391;-87
2022/01/25 07:13:51;;;;;;;0.50;0.45;;;0.10;99.90;;;;;;5008183;28;20410;-87
2022/01/25 07:16:18;;;;;;;0.50;0.40;;;0.20;99.90;;;;;;5007907;28;20411;-86
2022/01/25 07:18:46;;;;;;;0.95;0.60;;;0.20;99.90;;;;;;5007894;28;20449;-87
2022/01/25 07:21:14;;;;;;;0.80;0.57;;;0.20;99.90;;;;;;5007943;28;20656;-87
2022/01/25 07:23:42;;;;;;;0.60;0.60;;;0.10;99.90;;;;;;5007945;28;20395;-87
2022/01/25 07:26:09;;;;;;;0.60;0.40;;;0.20;99.90;;;;;;5007993;28;20392;-87
2022/01/25 07:28:37;;;;;;;0.80;0.68;;;0.20;99.90;;;;;;5007883;28;20403;-86
2022/01/25 07:31:05;;;;;;;1.00;0.60;;;0.20;99.90;;;;;;5008206;28;20894;-87
2022/01/25 07:33:33;;;;;;;0.95;0.60;;;0.20;99.90;;;;;;5011910;28;20486;-86
2022/01/25 07:36:14;;;;;;;0.73;0.50;;;0.20;99.90;;;;;;5022888;28;20414;-86
2022/01/25 07:38:48;;;;;;;0.60;0.50;;;0.20;99.90;;;;;;5007918;28;20416;-86
2022/01/25 07:41:18;;;;;;;0.40;0.40;;;0.20;99.90;;;;;;5007587;28;20493;-86
2022/01/25 07:43:49;;;;;;;0.43;0.40;;;0.20;99.90;;;;;;5007609;28;20414;-86
2022/01/25 07:46:22;;;;;;;1.05;0.60;;;0.20;99.90;;;;;;5008871;28;20395;-86
2022/01/25 07:49:07;;;;;;;1.42;0.57;;;0.20;99.90;;;;;;5008655;28;20388;-85
2022/01/25 07:51:40;;;;;;;1.40;0.83;;;0.20;99.90;;;;;;5007450;28;20505;-87
2022/01/25 07:54:08;;;;;;;2.10;0.70;;;0.30;99.90;;;;;;5007832;28;20955;-86
2022/01/25 07:56:36;;;;;;;0.90;0.70;;;0.30;99.90;;;;;;5007667;28;20488;-87
2022/01/25 07:59:04;;;;;;;1.83;1.00;;;0.30;99.90;;;;;;4991228;28;20734;-86
2022/01/25 08:01:32;;;;;;;1.55;0.80;;;0.30;99.90;;;;;;5008653;28;20391;-86
2022/01/25 08:04:00;;;;;;;1.73;0.90;;;0.30;99.90;;;;;;5008601;28;20482;-85
2022/01/25 08:06:31;;;;;;;1.10;0.60;;;0.30;99.90;;;;;;4991676;28;20403;-85
2022/01/25 08:09:15;;;;;;;1.60;1.00;;;0.30;99.90;;;;;;5010621;28;20456;-86
2022/01/25 08:11:56;;;;;;;1.30;0.80;;;0.30;99.90;;;;;;5019657;28;20398;-88
2022/01/25 08:15:02;;;;;;;1.80;0.80;;;0.30;99.90;;;;;;5009829;28;20399;-86
2022/01/25 08:17:33;;;;;;;2.85;1.13;;;0.30;99.90;;;;;;5011731;28;20399;-87
2022/01/25 08:20:22;;;;;;;2.63;1.33;;;0.30;99.90;;;;;;5009412;27;20403;-86
2022/01/25 08:23:07;;;;;;;2.58;1.00;;;0.30;99.90;;;;;;4997063;28;20400;-86
2022/01/25 08:26:00;;;;;;;3.70;1.35;;;0.30;99.90;;;;;;4965383;28;20761;-88
2022/01/25 08:28:36;;;;;;;3.38;1.42;;;0.40;99.90;;;;;;5011044;28;20479;-86
2022/01/25 08:31:09;;;;;;;1.80;1.20;;;0.40;99.90;;;;;;4995539;28;20399;-86
2022/01/25 08:34:00;;;;;;;3.53;1.75;;;0.40;99.90;;;;;;5021185;28;20406;-88
2022/01/25 08:36:55;;;;;;;5.78;1.63;;;0.40;99.90;;;;;;5036091;28;20999;-88
2022/01/25 08:39:26;;;;;;;7.93;1.90;;;0.40;99.90;;;;;;5052735;28;20901;-87
2022/01/25 08:41:54;;;;;;;4.88;2.38;;;0.40;99.90;;;;;;5035678;28;20474;-88
2022/01/25 08:44:25;;;;;;;5.60;2.60;;;0.50;99.90;;;;;;5036633;28;20465;-88
2022/01/25 08:46:53;;;;;;;7.13;2.10;;;0.50;99.90;;;;;;5051774;28;20392;-87
2022/01/25 08:49:28;;;;;;;4.87;2.23;;;0.50;99.90;;;;;;5035914;28;20478;-87
2022/01/25 08:52:12;;;;;;;5.68;2.78;;;0.50;99.90;;;;;;5022359;28;20844;-87
2022/01/25 08:55:07;;;;;;;4.53;2.25;;;0.50;99.90;;;;;;4962170;28;20390;-88
2022/01/25 08:57:38;;;;;;;4.93;2.28;;;0.50;99.90;;;;;;4955055;28;20406;-88
2022/01/25 09:00:27;;;;;;;4.93;2.20;;;0.50;99.90;;;;;;4970441;28;20434;-86
2022/01/25 09:02:55;;;;;;;8.32;3.05;;;0.50;99.90;;;;;;4938361;28;20398;-86
2022/01/25 09:05:24;;;;;;;5.35;3.00;;;0.50;99.90;;;;;;4970097;28;20395;-87
2022/01/25 09:07:53;;;;;;;7.32;3.60;;;0.50;99.90;;;;;;4938165;28;20482;-87
2022/01/25 09:10:21;;;;;;;4.33;2.87;;;0.50;99.90;;;;;;4953905;28;20809;-87
2022/01/25 09:12:48;;;;;;;7.35;2.80;;;0.50;99.90;;;;;;4954201;28;20406;-88
2022/01/25 09:15:16;;;;;;;6.67;3.00;;;0.60;99.90;;;;;;4953907;28;20402;-87
2022/01/25 09:17:44;;;;;;;6.15;2.90;;;0.60;99.90;;;;;;4954341;28;20399;-88
2022/01/25 09:20:11;;;;;;;6.78;3.22;;;0.60;99.90;;;;;;4937534;28;20391;-87
2022/01/25 09:22:39;;;;;;;5.90;2.53;;;0.60;99.90;;;;;;4937880;28;20413;-87
2022/01/25 09:25:27;;;;;;;5.18;2.70;;;0.60;99.90;;;;;;4955742;28;20889;-87
2022/01/25 09:27:55;;;;;;;4.17;2.63;;;0.60;99.90;;;;;;4969918;28;20486;-85
2022/01/25 09:30:23;;;;;;;5.72;2.70;;;0.60;99.90;;;;;;4965369;28;20397;-87
2022/01/25 09:32:51;;;;;;;6.65;3.05;;;0.60;99.90;;;;;;5023282;28;20759;-87
2022/01/25 09:35:18;;;;;;;6.78;3.00;;;0.60;99.90;;;;;;5006644;28;20407;-86
2022/01/25 09:37:47;;;;;;;5.60;2.63;;;0.60;99.90;;;;;;5006532;28;20393;-86
2022/01/25 09:40:15;;;;;;;5.78;2.50;;;0.50;99.90;;;;;;5006227;28;20839;-87
2022/01/25 09:42:43;;;;;;;4.80;2.40;;;0.60;99.90;;;;;;5006130;28;20401;-86
2022/01/25 09:45:17;;;;;;;8.30;3.10;;;0.50;99.90;;;;;;4990024;28;20745;-86
2022/01/25 09:47:45;;;;;;;7.55;2.88;;;0.60;99.90;;;;;;4990108;28;20389;-86
2022/01/25 09:50:14;;;;;;;8.63;2.95;;;0.60;99.90;;;;;;5006190;28;20401;-89
2022/01/25 09:52:43;;;;;;;6.28;2.50;;;0.60;99.90;;;;;;5006154;28;20903;-86
2022/01/25 09:55:16;;;;;;;5.97;2.55;;;0.70;99.90;;;;;;5006322;28;20891;-89
2022/01/25 09:57:44;;;;;;;5.55;2.83;;;0.60;99.90;;;;;;5006063;28;20393;-88
2022/01/25 10:00:15;;;;;;;4.30;2.53;;;0.60;99.90;;;;;;5020159;28;20713;-88
2022/01/25 10:03:12;;;;;;;5.18;2.40;;;0.60;99.90;;;;;;4992896;28;20399;-89
2022/01/25 10:05:44;;;;;;;5.73;2.00;;;0.70;99.90;;;;;;4997217;28;20446;-89
2022/01/25 10:08:26;;;;;;;4.32;2.35;;;0.70;99.90;;;;;;5009197;28;20403;-89
2022/01/25 10:11:00;;;;;;;5.38;2.38;;;0.70;99.90;;;;;;5008861;28;20403;-87
2022/01/25 10:13:30;;;;;;;6.10;2.30;;;0.60;99.90;;;;;;5009322;28;20384;-87
2022/01/25 10:16:09;;;;;;;5.20;2.22;;;0.60;99.90;;;;;;5007638;28;20401;-88
2022/01/25 10:18:56;;;;;;;6.53;2.40;;;0.70;99.90;;;;;;5010220;28;20399;-88
2022/01/25 10:21:25;;;;;;;6.57;2.30;;;0.70;99.90;;;;;;4990597;28;20870;-88
2022/01/25 10:24:14;;;;;;;5.50;2.20;;;0.70;99.90;;;;;;5009267;28;20769;-88
2022/01/25 10:26:53;;;;;;;6.13;2.17;;;0.70;99.90;;;;;;4993730;28;20400;-88
2022/01/25 10:29:31;;;;;;;8.38;3.08;;;0.70;99.90;;;;;;4992550;28;20800;-87
2022/01/25 10:32:05;;;;;;;4.60;2.10;;;0.70;99.90;;;;;;5009622;28;20487;-87
2022/01/25 10:34:49;;;;;;;7.65;2.50;;;0.70;99.90;;;;;;4992728;28;20437;-88
2022/01/25 10:37:20;;;;;;;5.95;2.40;;;0.70;99.90;;;;;;5008775;28;20403;-88
2022/01/25 10:39:51;;;;;;;6.97;2.63;;;0.70;99.90;;;;;;4989213;28;20397;-88
2022/01/25 10:42:24;;;;;;;8.17;3.00;;;0.70;99.90;;;;;;4989120;28;20401;-88
2022/01/25 10:45:13;;;;;;;6.28;2.78;;;0.70;99.90;;;;;;5021700;28;20409;-89
2022/01/25 10:47:50;;;;;;;6.93;2.70;;;0.70;99.90;;;;;;5004040;28;20523;-88
2022/01/25 10:50:25;;;;;;;6.18;3.10;;;0.70;99.90;;;;;;4992477;28;20402;-88
2022/01/25 10:53:09;;;;;;;7.07;2.80;;;0.70;99.90;;;;;;5009764;28;20389;-88
2022/01/25 10:55:49;;;;;;;8.77;3.67;;;0.70;99.90;;;;;;5008693;28;20490;-88
2022/01/25 10:58:17;;;;;;;9.15;3.30;;;0.70;99.90;;;;;;4992232;28;20757;-88
2022/01/25 11:00:47;;;;;;;5.65;2.50;;;0.80;99.90;;;;;;5009307;28;20471;-89
2022/01/25 11:03:27;;;;;;;6.38;2.78;;;0.80;99.90;;;;;;5008299;28;20404;-88
2022/01/25 11:05:56;;;;;;;5.70;2.28;;;0.80;99.90;;;;;;5008718;28;20493;-88
2022/01/25 11:08:28;;;;;;;5.05;2.50;;;0.80;99.90;;;;;;5024020;28;21465;-89
2022/01/25 11:10:59;;;;;;;8.60;3.05;;;0.80;99.90;;;;;;5024797;28;20411;-89
2022/01/25 11:16:08;;;;;;;4.38;2.00;;;0.80;99.90;;;;;;5041439;28;20396;-87
2022/01/25 11:18:37;;;;;;;6.45;2.10;;;0.90;99.90;;;;;;5025035;28;20395;-86
2022/01/25 11:21:07;;;;;;;5.15;1.88;;;0.90;99.90;;;;;;5008109;28;20391;-86
2022/01/25 11:23:38;;;;;;;7.22;2.55;;;0.90;99.90;;;;;;5008595;28;20473;-87
2022/01/25 11:26:08;;;;;;;7.47;2.30;;;0.90;99.90;;;;;;5005193;28;20880;-87
2022/01/25 11:28:38;;;;;;;6.53;2.20;;;0.90;99.90;;;;;;4988957;28;20829;-87
2022/01/25 11:31:16;;;;;;;5.13;2.03;;;0.90;99.90;;;;;;4988737;28;20403;-87
2022/01/25 11:33:47;;;;;;;7.23;2.20;;;1.00;99.90;;;;;;5008069;28;20900;-85
2022/01/25 11:36:15;;;;;;;5.10;2.03;;;1.00;99.90;;;;;;4991812;28;20461;-87
2022/01/25 11:38:46;;;;;;;5.32;2.08;;;1.00;99.90;;;;;;5008028;28;20387;-87
2022/01/25 11:41:18;;;;;;;8.40;2.22;;;1.00;99.90;;;;;;5008103;28;20969;-87
2022/01/25 11:44:07;;;;;;;7.97;2.47;;;1.00;99.90;;;;;;4995042;28;20399;-87
2022/01/25 11:46:49;;;;;;;4.93;2.00;;;1.00;99.90;;;;;;4995258;28;20411;-86
2022/01/25 11:49:20;;;;;;;6.03;2.00;;;1.00;99.90;;;;;;5011782;28;20387;-86
2022/01/25 11:52:06;;;;;;;8.63;2.50;;;1.00;99.90;;;;;;5011451;28;20881;-86
2022/01/25 11:54:36;;;;;;;6.55;1.80;;;1.00;99.90;;;;;;5011466;28;20619;-86
2022/01/25 11:57:15;;;;;;;5.33;2.17;;;1.00;99.90;;;;;;4994845;28;20413;-87
2022/01/25 11:59:50;;;;;;;6.83;2.10;;;1.00;99.90;;;;;;5044469;28;20395;-88
2022/01/25 12:02:41;;;;;;;6.10;2.15;;;1.00;99.90;;;;;;5012376;28;20395;-87
2022/01/25 12:05:11;;;;;;;6.63;2.10;;;1.00;99.90;;;;;;5012443;28;20461;-87
2022/01/25 12:07:43;;;;;;;5.70;2.00;;;1.10;99.90;;;;;;5011131;28;20399;-87
2022/01/25 12:10:42;;;;;;;6.53;2.10;;;1.00;99.90;;;;;;5044370;28;20399;-89
2022/01/25 12:13:18;;;;;;;8.00;2.20;;;1.00;99.90;;;;;;5028217;28;20395;-89
2022/01/25 12:16:06;;;;;;;8.80;2.63;;;1.00;99.90;;;;;;5010955;28;20395;-88
2022/01/25 12:19:04;;;;;;;8.20;2.10;;;1.00;99.90;;;;;;5010903;28;20391;-89
2022/01/25 12:21:47;;;;;;;7.13;2.00;;;1.00;99.90;;;;;;5010879;28;20403;-88
2022/01/25 12:24:39;;;;;;;7.20;2.30;;;1.00;99.90;;;;;;5010938;28;20407;-89
2022/01/25 12:30:11;;;;;;;6.43;1.77;;;1.10;99.90;;;;;;5011957;28;20407;-89
2022/01/25 12:33:07;;;;;;;4.80;1.95;;;1.10;99.90;;;;;;5010760;28;20894;-89
2022/01/25 12:35:38;;;;;;;5.17;2.03;;;1.10;99.90;;;;;;5044188;28;20490;-87
2022/01/25 12:38:15;;;;;;;5.13;2.03;;;1.10;99.90;;;;;;5010874;28;20414;-88
2022/01/25 12:40:52;;;;;;;6.18;1.98;;;1.10;99.90;;;;;;5010613;28;20437;-87
2022/01/25 12:43:24;;;;;;;5.20;1.70;;;1.10;99.90;;;;;;5010713;28;20927;-87
2022/01/25 12:45:59;;;;;;;6.50;1.90;;;1.10;99.90;;;;;;5010672;28;20894;-87
2022/01/25 12:48:31;;;;;;;7.82;2.10;;;1.20;99.90;;;;;;5010492;28;20407;-87
2022/01/25 12:51:03;;;;;;;5.10;1.73;;;1.20;99.90;;;;;;5010832;28;20442;-87
2022/01/25 12:53:33;;;;;;;5.05;1.50;;;1.30;99.90;;;;;;5026336;28;20396;-88
2022/01/25 12:56:16;;;;;;;4.40;1.80;;;1.30;99.90;;;;;;5010332;28;20433;-88
2022/01/25 12:58:46;;;;;;;4.93;1.43;;;1.30;99.90;;;;;;5011632;28;20395;-87
2022/01/25 13:01:16;;;;;;;5.25;1.40;;;1.40;99.90;;;;;;5010382;28;20460;-90
2022/01/25 13:03:47;;;;;;;5.75;1.58;;;1.40;99.90;;;;;;5011491;28;20391;-86
2022/01/25 13:06:18;;;;;;;5.00;1.65;;;1.40;99.90;;;;;;5027061;28;20458;-87
2022/01/25 13:09:05;;;;;;;5.90;1.60;;;1.50;99.90;;;;;;5010489;28;20430;-87
2022/01/25 13:12:26;;;;;;;6.35;1.38;;;1.60;99.90;;;;;;4994165;28;20403;-87
2022/01/25 13:17:13;;;;;;;7.55;1.67;;;1.50;99.90;;;;;;5011455;28;20391;-88
2022/01/25 13:19:50;;;;;;;6.93;2.00;;;1.50;99.90;;;;;;5010319;28;20440;-87
2022/01/25 13:22:27;;;;;;;5.10;1.77;;;1.50;99.90;;;;;;5010260;28;20423;-86
2022/01/25 13:27:48;;;;;;;6.03;1.65;;;1.60;99.90;;;;;;5035191;28;20407;-88
2022/01/25 13:30:43;;;;;;;7.05;1.50;;;1.50;99.90;;;;;;5025288;28;20436;-88
2022/01/25 13:33:18;;;;;;;6.70;1.92;;;1.50;99.90;;;;;;5114605;28;20383;-88
2022/01/25 13:35:53;;;;;;;7.38;2.03;;;1.40;99.90;;;;;;5001496;28;20400;-87
2022/01/25 13:38:23;;;;;;;4.82;1.80;;;1.30;99.90;;;;;;5010939;28;21011;-87
2022/01/25 13:41:08;;;;;;;4.03;1.63;;;1.20;99.90;;;;;;4993673;28;20938;-88
2022/01/25 13:46:30;;;;;;;6.60;1.95;;;1.20;99.90;;;;;;5009710;28;20403;-87
2022/01/25 13:49:21;;;;;;;6.15;1.85;;;1.20;99.90;;;;;;5024723;28;20889;-88
2022/01/25 13:51:54;;;;;;;5.27;1.50;;;1.20;99.90;;;;;;5008682;28;20932;-88
2022/01/25 13:54:25;;;;;;;5.72;1.83;;;1.20;99.90;;;;;;5042318;28;20398;-88
2022/01/25 13:56:54;;;;;;;7.95;2.50;;;1.10;99.90;;;;;;5025783;28;20406;-88
2022/01/25 13:59:24;;;;;;;5.20;1.80;;;1.10;99.90;;;;;;5025853;28;20430;-88
2022/01/25 14:01:52;;;;;;;8.02;2.25;;;1.00;99.90;;;;;;5009303;28;20858;-88
2022/01/25 14:04:25;;;;;;;6.72;2.08;;;1.00;99.90;;;;;;5010373;28;20484;-88
2022/01/25 14:06:55;;;;;;;5.10;2.03;;;1.00;99.90;;;;;;5025055;28;20399;-88
2022/01/25 14:09:30;;;;;;;6.68;2.42;;;1.00;99.90;;;;;;5025558;28;20462;-87
2022/01/25 14:23:25;;;;;;;5.23;1.90;;;0.80;99.90;;;;;;4989446;28;20404;-87
2022/01/25 14:26:07;;;;;;;6.37;2.10;;;0.70;99.90;;;;;;4989179;28;20790;-87
2022/01/25 14:28:41;;;;;;;6.97;2.47;;;0.80;99.90;;;;;;4989472;28;20436;-87
2022/01/25 14:31:20;;;;;;;10.63;2.30;;;0.70;99.90;;;;;;5005602;28;20397;-88
2022/01/25 14:33:57;;;;;;;8.10;2.30;;;0.70;99.90;;;;;;4993664;28;20404;-89
2022/01/25 14:36:26;;;;;;;9.07;2.33;;;0.70;99.90;;;;;;4992684;28;20391;-88
2022/01/25 14:38:55;;;;;;;6.20;2.33;;;0.80;99.90;;;;;;5009873;28;20395;-88
2022/01/25 14:41:30;;;;;;;7.57;2.30;;;0.70;99.90;;;;;;5008551;28;20395;-87
2022/01/25 14:44:05;;;;;;;7.90;2.40;;;0.70;99.90;;;;;;4992606;28;20445;-86
2022/01/25 14:46:41;;;;;;;6.70;2.25;;;0.70;99.90;;;;;;4992668;28;20399;-86
2022/01/25 14:49:18;;;;;;;6.05;2.10;;;0.70;99.90;;;;;;4992525;28;20396;-86
2022/01/25 14:51:47;;;;;;;7.50;2.38;;;0.70;99.90;;;;;;5008578;28;20399;-88
2022/01/25 14:54:18;;;;;;;9.23;2.40;;;0.70;99.90;;;;;;5008427;28;20404;-88
2022/01/25 14:56:50;;;;;;;6.37;2.00;;;0.70;99.90;;;;;;5013018;28;20391;-88
2022/01/25 14:59:27;;;;;;;8.68;2.50;;;0.70;99.90;;;;;;5005462;28;20400;-86
2022/01/25 15:02:08;;;;;;;7.80;2.22;;;0.70;99.90;;;;;;5021635;28;20401;-85
2022/01/25 15:04:52;;;;;;;6.70;1.90;;;0.70;99.90;;;;;;4988782;28;20760;-86
2022/01/25 15:07:23;;;;;;;8.52;2.05;;;0.60;99.90;;;;;;4988506;28;20476;-85
2022/01/25 15:09:57;;;;;;;7.40;2.20;;;0.60;99.90;;;;;;4988806;28;20389;-86
2022/01/25 15:12:42;;;;;;;6.40;1.80;;;0.60;99.90;;;;;;4991269;28;20389;-86
2022/01/25 15:15:15;;;;;;;7.47;2.10;;;0.60;99.90;;;;;;5008375;28;20403;-86
2022/01/25 15:17:43;;;;;;;6.65;1.90;;;0.50;99.90;;;;;;5007511;28;20931;-87
2022/01/25 15:20:15;;;;;;;7.57;2.40;;;0.50;99.90;;;;;;5024944;28;20398;-87
2022/01/25 15:22:47;;;;;;;7.53;1.88;;;0.60;99.90;;;;;;5024789;28;20431;-86
2022/01/25 15:25:24;;;;;;;7.15;2.15;;;0.50;99.90;;;;;;5008069;28;20909;-86
2022/01/25 15:27:53;;;;;;;7.13;2.20;;;0.50;99.90;;;;;;5008069;28;20490;-89
2022/01/25 15:30:22;;;;;;;8.20;1.85;;;0.40;99.90;;;;;;5008217;28;20392;-86